sensor_id;sensor_type;location;lat;lon;timestamp;P1;durP1;ratioP1;P2;durP2;ratioP2
16839;SDS011;8536;52.150;11.572;2022-11-20T00:01:04;14.97;;;8.17;;
16839;SDS011;8536;52.150;11.572;2022-11-20T00:03:35;12.07;;;7.47;;
16839;SDS011;8536;52.150;11.572;2022-11-20T00:06:02;10.57;;;6.33;;
16839;SDS011;8536;52.150;11.572;2022-11-20T00:08:30;9.77;;;7.03;;
16839;SDS011;8536;52.150;11.572;2022-11-20T00:10:57;12.03;;;7.90;;
16839;SDS011;8536;52.150;11.572;2022-11-20T00:13:23;11.40;;;7.30;;
16839;SDS011;8536;52.150;11.572;2022-11-20T00:15:56;11.27;;;7.53;;
16839;SDS011;8536;52.150;11.572;2022-11-20T00:18:23;13.07;;;7.43;;
16839;SDS011;8536;52.150;11.572;2022-11-20T00:20:49;12.83;;;7.97;;
16839;SDS011;8536;52.150;11.572;2022-11-20T00:23:16;11.50;;;7.70;;
16839;SDS011;8536;52.150;11.572;2022-11-20T00:25:42;11.07;;;7.60;;
16839;SDS011;8536;52.150;11.572;2022-11-20T00:28:09;13.37;;;8.40;;
16839;SDS011;8536;52.150;11.572;2022-11-20T00:30:35;14.10;;;8.43;;
16839;SDS011;8536;52.150;11.572;2022-11-20T00:33:02;11.33;;;8.10;;
16839;SDS011;8536;52.150;11.572;2022-11-20T00:35:28;10.43;;;7.70;;
16839;SDS011;8536;52.150;11.572;2022-11-20T00:37:55;11.57;;;8.60;;
16839;SDS011;8536;52.150;11.572;2022-11-20T00:40:21;14.80;;;8.80;;
16839;SDS011;8536;52.150;11.572;2022-11-20T00:42:47;13.90;;;9.40;;
16839;SDS011;8536;52.150;11.572;2022-11-20T00:45:14;14.73;;;9.13;;
16839;SDS011;8536;52.150;11.572;2022-11-20T00:47:40;14.30;;;9.30;;
16839;SDS011;8536;52.150;11.572;2022-11-20T00:50:07;13.50;;;8.90;;
16839;SDS011;8536;52.150;11.572;2022-11-20T00:52:33;11.90;;;8.40;;
16839;SDS011;8536;52.150;11.572;2022-11-20T00:55:00;11.97;;;8.63;;
16839;SDS011;8536;52.150;11.572;2022-11-20T00:57:26;12.60;;;8.83;;
16839;SDS011;8536;52.150;11.572;2022-11-20T00:59:53;15.60;;;9.43;;
16839;SDS011;8536;52.150;11.572;2022-11-20T01:02:19;12.27;;;9.10;;
16839;SDS011;8536;52.150;11.572;2022-11-20T01:04:45;13.67;;;8.87;;
16839;SDS011;8536;52.150;11.572;2022-11-20T01:07:12;15.20;;;8.77;;
16839;SDS011;8536;52.150;11.572;2022-11-20T01:09:38;12.47;;;8.53;;
16839;SDS011;8536;52.150;11.572;2022-11-20T01:12:05;11.30;;;8.40;;
16839;SDS011;8536;52.150;11.572;2022-11-20T01:14:31;13.60;;;9.03;;
16839;SDS011;8536;52.150;11.572;2022-11-20T01:16:58;14.37;;;9.33;;
16839;SDS011;8536;52.150;11.572;2022-11-20T01:19:24;11.83;;;8.90;;
16839;SDS011;8536;52.150;11.572;2022-11-20T01:21:52;13.30;;;8.60;;
16839;SDS011;8536;52.150;11.572;2022-11-20T01:24:20;19.37;;;8.97;;
16839;SDS011;8536;52.150;11.572;2022-11-20T01:26:48;14.17;;;9.13;;
16839;SDS011;8536;52.150;11.572;2022-11-20T01:29:20;12.77;;;8.80;;
16839;SDS011;8536;52.150;11.572;2022-11-20T01:31:49;14.50;;;9.17;;
16839;SDS011;8536;52.150;11.572;2022-11-20T01:34:16;13.20;;;8.73;;
16839;SDS011;8536;52.150;11.572;2022-11-20T01:36:44;12.37;;;8.33;;
16839;SDS011;8536;52.150;11.572;2022-11-20T01:39:15;14.77;;;8.97;;
16839;SDS011;8536;52.150;11.572;2022-11-20T01:41:46;11.77;;;8.13;;
16839;SDS011;8536;52.150;11.572;2022-11-20T01:47:08;13.93;;;9.00;;
16839;SDS011;8536;52.150;11.572;2022-11-20T01:49:39;11.37;;;8.70;;
16839;SDS011;8536;52.150;11.572;2022-11-20T01:52:12;13.63;;;9.23;;
16839;SDS011;8536;52.150;11.572;2022-11-20T01:54:42;13.17;;;9.17;;
16839;SDS011;8536;52.150;11.572;2022-11-20T01:57:12;12.00;;;8.37;;
16839;SDS011;8536;52.150;11.572;2022-11-20T01:59:40;12.93;;;9.10;;
16839;SDS011;8536;52.150;11.572;2022-11-20T02:02:09;13.87;;;9.40;;
16839;SDS011;8536;52.150;11.572;2022-11-20T02:04:36;12.60;;;8.67;;
16839;SDS011;8536;52.150;11.572;2022-11-20T02:07:02;15.20;;;8.87;;
16839;SDS011;8536;52.150;11.572;2022-11-20T02:09:31;13.30;;;8.77;;
16839;SDS011;8536;52.150;11.572;2022-11-20T02:11:57;12.80;;;9.17;;
16839;SDS011;8536;52.150;11.572;2022-11-20T02:14:24;13.80;;;8.50;;
16839;SDS011;8536;52.150;11.572;2022-11-20T02:16:51;13.63;;;8.87;;
16839;SDS011;8536;52.150;11.572;2022-11-20T02:19:28;11.10;;;7.80;;
16839;SDS011;8536;52.150;11.572;2022-11-20T02:22:58;12.90;;;8.43;;
16839;SDS011;8536;52.150;11.572;2022-11-20T02:24:58;12.87;;;8.47;;
16839;SDS011;8536;52.150;11.572;2022-11-20T02:27:27;12.37;;;8.50;;
16839;SDS011;8536;52.150;11.572;2022-11-20T02:29:54;15.30;;;9.20;;
16839;SDS011;8536;52.150;11.572;2022-11-20T02:32:25;13.13;;;8.30;;
16839;SDS011;8536;52.150;11.572;2022-11-20T02:34:53;13.97;;;9.00;;
16839;SDS011;8536;52.150;11.572;2022-11-20T02:37:20;13.03;;;8.37;;
16839;SDS011;8536;52.150;11.572;2022-11-20T02:39:47;12.73;;;8.47;;
16839;SDS011;8536;52.150;11.572;2022-11-20T02:42:15;14.00;;;8.27;;
16839;SDS011;8536;52.150;11.572;2022-11-20T02:44:42;12.60;;;7.83;;
16839;SDS011;8536;52.150;11.572;2022-11-20T02:47:08;13.67;;;8.77;;
16839;SDS011;8536;52.150;11.572;2022-11-20T02:49:35;17.73;;;8.63;;
16839;SDS011;8536;52.150;11.572;2022-11-20T02:52:02;11.20;;;7.53;;
16839;SDS011;8536;52.150;11.572;2022-11-20T02:54:28;15.13;;;9.13;;
16839;SDS011;8536;52.150;11.572;2022-11-20T02:56:55;15.60;;;9.53;;
16839;SDS011;8536;52.150;11.572;2022-11-20T02:59:21;13.53;;;8.40;;
16839;SDS011;8536;52.150;11.572;2022-11-20T03:01:48;15.10;;;9.07;;
16839;SDS011;8536;52.150;11.572;2022-11-20T03:04:14;14.27;;;8.93;;
16839;SDS011;8536;52.150;11.572;2022-11-20T03:06:41;18.20;;;8.97;;
16839;SDS011;8536;52.150;11.572;2022-11-20T03:09:07;12.70;;;8.17;;
16839;SDS011;8536;52.150;11.572;2022-11-20T03:11:34;12.77;;;9.07;;
16839;SDS011;8536;52.150;11.572;2022-11-20T03:14:04;12.87;;;8.20;;
16839;SDS011;8536;52.150;11.572;2022-11-20T03:16:31;13.97;;;8.77;;
16839;SDS011;8536;52.150;11.572;2022-11-20T03:18:58;13.67;;;8.90;;
16839;SDS011;8536;52.150;11.572;2022-11-20T03:21:24;12.63;;;8.03;;
16839;SDS011;8536;52.150;11.572;2022-11-20T03:23:52;15.70;;;9.00;;
16839;SDS011;8536;52.150;11.572;2022-11-20T03:26:20;11.77;;;8.03;;
16839;SDS011;8536;52.150;11.572;2022-11-20T03:28:52;13.80;;;8.60;;
16839;SDS011;8536;52.150;11.572;2022-11-20T03:31:21;13.30;;;8.40;;
16839;SDS011;8536;52.150;11.572;2022-11-20T03:33:50;16.20;;;9.30;;
16839;SDS011;8536;52.150;11.572;2022-11-20T03:36:17;13.00;;;8.47;;
16839;SDS011;8536;52.150;11.572;2022-11-20T03:38:44;12.57;;;8.83;;
16839;SDS011;8536;52.150;11.572;2022-11-20T03:41:12;12.73;;;7.90;;
16839;SDS011;8536;52.150;11.572;2022-11-20T03:43:50;11.37;;;8.47;;
16839;SDS011;8536;52.150;11.572;2022-11-20T03:46:18;13.10;;;8.03;;
16839;SDS011;8536;52.150;11.572;2022-11-20T03:48:44;12.37;;;8.17;;
16839;SDS011;8536;52.150;11.572;2022-11-20T03:51:18;11.73;;;7.53;;
16839;SDS011;8536;52.150;11.572;2022-11-20T03:53:46;10.67;;;7.43;;
16839;SDS011;8536;52.150;11.572;2022-11-20T03:56:14;11.67;;;8.27;;
16839;SDS011;8536;52.150;11.572;2022-11-20T03:58:42;11.37;;;7.80;;
16839;SDS011;8536;52.150;11.572;2022-11-20T04:01:10;12.30;;;7.67;;
16839;SDS011;8536;52.150;11.572;2022-11-20T04:03:41;13.57;;;7.77;;
16839;SDS011;8536;52.150;11.572;2022-11-20T04:06:09;11.43;;;7.40;;
16839;SDS011;8536;52.150;11.572;2022-11-20T04:08:37;10.47;;;7.60;;
16839;SDS011;8536;52.150;11.572;2022-11-20T04:11:14;11.80;;;7.13;;
16839;SDS011;8536;52.150;11.572;2022-11-20T04:13:52;12.17;;;7.63;;
16839;SDS011;8536;52.150;11.572;2022-11-20T04:16:23;9.37;;;6.77;;
16839;SDS011;8536;52.150;11.572;2022-11-20T04:18:54;11.50;;;7.90;;
16839;SDS011;8536;52.150;11.572;2022-11-20T04:21:24;11.50;;;7.77;;
16839;SDS011;8536;52.150;11.572;2022-11-20T04:23:51;10.73;;;7.60;;
16839;SDS011;8536;52.150;11.572;2022-11-20T04:26:22;13.00;;;7.93;;
16839;SDS011;8536;52.150;11.572;2022-11-20T04:28:49;11.30;;;7.40;;
16839;SDS011;8536;52.150;11.572;2022-11-20T04:31:17;11.63;;;7.17;;
16839;SDS011;8536;52.150;11.572;2022-11-20T04:33:45;11.13;;;6.90;;
16839;SDS011;8536;52.150;11.572;2022-11-20T04:36:12;10.97;;;7.47;;
16839;SDS011;8536;52.150;11.572;2022-11-20T04:38:41;10.87;;;7.93;;
16839;SDS011;8536;52.150;11.572;2022-11-20T04:41:08;9.47;;;7.40;;
16839;SDS011;8536;52.150;11.572;2022-11-20T04:43:40;11.23;;;7.30;;
16839;SDS011;8536;52.150;11.572;2022-11-20T04:46:07;12.17;;;7.33;;
16839;SDS011;8536;52.150;11.572;2022-11-20T04:48:34;10.77;;;7.80;;
16839;SDS011;8536;52.150;11.572;2022-11-20T04:51:02;10.93;;;7.97;;
16839;SDS011;8536;52.150;11.572;2022-11-20T04:53:29;11.57;;;8.00;;
16839;SDS011;8536;52.150;11.572;2022-11-20T04:56:06;11.43;;;7.87;;
16839;SDS011;8536;52.150;11.572;2022-11-20T04:58:34;9.83;;;6.77;;
16839;SDS011;8536;52.150;11.572;2022-11-20T05:01:01;9.70;;;7.23;;
16839;SDS011;8536;52.150;11.572;2022-11-20T05:03:28;10.77;;;7.20;;
16839;SDS011;8536;52.150;11.572;2022-11-20T05:05:55;12.57;;;7.87;;
16839;SDS011;8536;52.150;11.572;2022-11-20T05:08:21;12.73;;;7.83;;
16839;SDS011;8536;52.150;11.572;2022-11-20T05:10:48;10.90;;;6.60;;
16839;SDS011;8536;52.150;11.572;2022-11-20T05:13:14;9.47;;;7.63;;
16839;SDS011;8536;52.150;11.572;2022-11-20T05:15:41;11.27;;;7.60;;
16839;SDS011;8536;52.150;11.572;2022-11-20T05:18:07;9.00;;;6.97;;
16839;SDS011;8536;52.150;11.572;2022-11-20T05:20:34;12.03;;;6.97;;
16839;SDS011;8536;52.150;11.572;2022-11-20T05:23:02;11.00;;;7.17;;
16839;SDS011;8536;52.150;11.572;2022-11-20T05:25:28;11.43;;;7.20;;
16839;SDS011;8536;52.150;11.572;2022-11-20T05:27:55;11.83;;;7.33;;
16839;SDS011;8536;52.150;11.572;2022-11-20T05:30:21;9.93;;;7.13;;
16839;SDS011;8536;52.150;11.572;2022-11-20T05:32:47;9.93;;;6.90;;
16839;SDS011;8536;52.150;11.572;2022-11-20T05:35:14;11.73;;;7.90;;
16839;SDS011;8536;52.150;11.572;2022-11-20T05:37:40;11.00;;;7.80;;
16839;SDS011;8536;52.150;11.572;2022-11-20T05:40:07;10.20;;;7.83;;
16839;SDS011;8536;52.150;11.572;2022-11-20T05:42:34;9.90;;;7.30;;
16839;SDS011;8536;52.150;11.572;2022-11-20T05:45:02;10.90;;;8.00;;
16839;SDS011;8536;52.150;11.572;2022-11-20T05:47:33;14.43;;;7.83;;
16839;SDS011;8536;52.150;11.572;2022-11-20T05:50:00;9.40;;;6.80;;
16839;SDS011;8536;52.150;11.572;2022-11-20T05:52:30;11.77;;;7.70;;
16839;SDS011;8536;52.150;11.572;2022-11-20T05:54:57;11.83;;;7.57;;
16839;SDS011;8536;52.150;11.572;2022-11-20T05:57:23;10.13;;;6.90;;
16839;SDS011;8536;52.150;11.572;2022-11-20T05:59:49;12.30;;;6.93;;
16839;SDS011;8536;52.150;11.572;2022-11-20T06:02:16;10.93;;;6.43;;
16839;SDS011;8536;52.150;11.572;2022-11-20T06:04:42;9.87;;;6.97;;
16839;SDS011;8536;52.150;11.572;2022-11-20T06:07:09;10.63;;;6.80;;
16839;SDS011;8536;52.150;11.572;2022-11-20T06:09:35;10.97;;;6.53;;
16839;SDS011;8536;52.150;11.572;2022-11-20T06:12:02;11.27;;;7.07;;
16839;SDS011;8536;52.150;11.572;2022-11-20T06:14:28;10.80;;;7.00;;
16839;SDS011;8536;52.150;11.572;2022-11-20T06:16:55;10.97;;;6.70;;
16839;SDS011;8536;52.150;11.572;2022-11-20T06:19:21;10.73;;;6.50;;
16839;SDS011;8536;52.150;11.572;2022-11-20T06:21:48;10.13;;;7.03;;
16839;SDS011;8536;52.150;11.572;2022-11-20T06:24:18;9.23;;;6.03;;
16839;SDS011;8536;52.150;11.572;2022-11-20T06:26:44;8.40;;;5.70;;
16839;SDS011;8536;52.150;11.572;2022-11-20T06:29:11;9.23;;;6.47;;
16839;SDS011;8536;52.150;11.572;2022-11-20T06:31:37;8.50;;;6.10;;
16839;SDS011;8536;52.150;11.572;2022-11-20T06:34:04;10.67;;;6.67;;
16839;SDS011;8536;52.150;11.572;2022-11-20T06:36:32;10.60;;;6.73;;
16839;SDS011;8536;52.150;11.572;2022-11-20T06:38:59;11.37;;;7.77;;
16839;SDS011;8536;52.150;11.572;2022-11-20T06:41:25;14.33;;;7.67;;
16839;SDS011;8536;52.150;11.572;2022-11-20T06:43:52;13.03;;;7.93;;
16839;SDS011;8536;52.150;11.572;2022-11-20T06:46:19;14.50;;;7.83;;
16839;SDS011;8536;52.150;11.572;2022-11-20T06:48:46;14.40;;;8.20;;
16839;SDS011;8536;52.150;11.572;2022-11-20T06:51:13;13.80;;;7.90;;
16839;SDS011;8536;52.150;11.572;2022-11-20T06:53:40;13.10;;;7.60;;
16839;SDS011;8536;52.150;11.572;2022-11-20T06:56:06;11.27;;;7.00;;
16839;SDS011;8536;52.150;11.572;2022-11-20T06:58:34;9.73;;;6.63;;
16839;SDS011;8536;52.150;11.572;2022-11-20T07:01:02;8.63;;;6.07;;
16839;SDS011;8536;52.150;11.572;2022-11-20T07:03:30;9.83;;;6.80;;
16839;SDS011;8536;52.150;11.572;2022-11-20T07:05:57;10.33;;;6.07;;
16839;SDS011;8536;52.150;11.572;2022-11-20T07:08:24;7.80;;;5.70;;
16839;SDS011;8536;52.150;11.572;2022-11-20T07:10:51;9.80;;;6.20;;
16839;SDS011;8536;52.150;11.572;2022-11-20T07:13:17;8.27;;;6.07;;
16839;SDS011;8536;52.150;11.572;2022-11-20T07:15:44;6.60;;;5.07;;
16839;SDS011;8536;52.150;11.572;2022-11-20T07:18:10;8.03;;;5.37;;
16839;SDS011;8536;52.150;11.572;2022-11-20T07:20:37;9.03;;;5.63;;
16839;SDS011;8536;52.150;11.572;2022-11-20T07:23:03;11.00;;;6.00;;
16839;SDS011;8536;52.150;11.572;2022-11-20T07:25:30;7.63;;;5.57;;
16839;SDS011;8536;52.150;11.572;2022-11-20T07:27:57;6.83;;;5.20;;
16839;SDS011;8536;52.150;11.572;2022-11-20T07:30:24;7.57;;;5.70;;
16839;SDS011;8536;52.150;11.572;2022-11-20T07:32:51;14.23;;;5.93;;
16839;SDS011;8536;52.150;11.572;2022-11-20T07:35:18;8.50;;;5.87;;
16839;SDS011;8536;52.150;11.572;2022-11-20T07:37:45;9.83;;;6.73;;
16839;SDS011;8536;52.150;11.572;2022-11-20T07:40:13;8.23;;;6.07;;
16839;SDS011;8536;52.150;11.572;2022-11-20T07:42:46;11.03;;;6.40;;
16839;SDS011;8536;52.150;11.572;2022-11-20T07:45:20;9.63;;;6.07;;
16839;SDS011;8536;52.150;11.572;2022-11-20T07:47:47;10.73;;;6.50;;
16839;SDS011;8536;52.150;11.572;2022-11-20T07:50:13;8.67;;;6.00;;
16839;SDS011;8536;52.150;11.572;2022-11-20T07:52:40;8.57;;;6.60;;
16839;SDS011;8536;52.150;11.572;2022-11-20T07:55:07;9.00;;;6.00;;
16839;SDS011;8536;52.150;11.572;2022-11-20T07:57:34;7.90;;;5.93;;
16839;SDS011;8536;52.150;11.572;2022-11-20T08:00:01;8.83;;;6.27;;
16839;SDS011;8536;52.150;11.572;2022-11-20T08:02:28;8.07;;;5.83;;
16839;SDS011;8536;52.150;11.572;2022-11-20T08:04:54;9.00;;;6.33;;
16839;SDS011;8536;52.150;11.572;2022-11-20T08:07:20;9.30;;;6.30;;
16839;SDS011;8536;52.150;11.572;2022-11-20T08:09:47;8.93;;;6.00;;
16839;SDS011;8536;52.150;11.572;2022-11-20T08:12:17;6.73;;;5.53;;
16839;SDS011;8536;52.150;11.572;2022-11-20T08:15:04;10.50;;;6.10;;
16839;SDS011;8536;52.150;11.572;2022-11-20T08:17:38;8.57;;;6.23;;
16839;SDS011;8536;52.150;11.572;2022-11-20T08:20:04;11.57;;;5.80;;
16839;SDS011;8536;52.150;11.572;2022-11-20T08:22:31;10.03;;;6.57;;
16839;SDS011;8536;52.150;11.572;2022-11-20T08:24:57;9.27;;;6.60;;
16839;SDS011;8536;52.150;11.572;2022-11-20T08:27:24;7.83;;;5.70;;
16839;SDS011;8536;52.150;11.572;2022-11-20T08:29:50;8.47;;;6.07;;
16839;SDS011;8536;52.150;11.572;2022-11-20T08:32:17;8.10;;;5.13;;
16839;SDS011;8536;52.150;11.572;2022-11-20T08:34:43;6.67;;;5.70;;
16839;SDS011;8536;52.150;11.572;2022-11-20T08:37:10;8.40;;;5.30;;
16839;SDS011;8536;52.150;11.572;2022-11-20T08:39:36;7.60;;;5.83;;
16839;SDS011;8536;52.150;11.572;2022-11-20T08:42:06;8.57;;;5.83;;
16839;SDS011;8536;52.150;11.572;2022-11-20T08:44:33;6.60;;;5.30;;
16839;SDS011;8536;52.150;11.572;2022-11-20T08:46:59;8.03;;;5.10;;
16839;SDS011;8536;52.150;11.572;2022-11-20T08:49:26;8.27;;;6.00;;
16839;SDS011;8536;52.150;11.572;2022-11-20T08:51:52;9.70;;;6.13;;
16839;SDS011;8536;52.150;11.572;2022-11-20T08:54:21;6.67;;;5.53;;
16839;SDS011;8536;52.150;11.572;2022-11-20T08:56:48;8.07;;;5.60;;
16839;SDS011;8536;52.150;11.572;2022-11-20T08:59:15;9.87;;;6.03;;
16839;SDS011;8536;52.150;11.572;2022-11-20T09:02:01;10.87;;;6.47;;
16839;SDS011;8536;52.150;11.572;2022-11-20T09:04:28;10.60;;;6.53;;
16839;SDS011;8536;52.150;11.572;2022-11-20T09:06:54;7.13;;;5.57;;
16839;SDS011;8536;52.150;11.572;2022-11-20T09:09:21;7.30;;;4.87;;
16839;SDS011;8536;52.150;11.572;2022-11-20T09:11:48;14.20;;;7.77;;
16839;SDS011;8536;52.150;11.572;2022-11-20T09:14:16;7.57;;;5.43;;
16839;SDS011;8536;52.150;11.572;2022-11-20T09:16:44;8.17;;;4.90;;
16839;SDS011;8536;52.150;11.572;2022-11-20T09:19:11;7.03;;;5.07;;
16839;SDS011;8536;52.150;11.572;2022-11-20T09:21:57;9.53;;;4.13;;
16839;SDS011;8536;52.150;11.572;2022-11-20T09:24:28;8.60;;;5.30;;
16839;SDS011;8536;52.150;11.572;2022-11-20T09:26:54;7.13;;;4.90;;
16839;SDS011;8536;52.150;11.572;2022-11-20T09:29:21;9.43;;;4.47;;
16839;SDS011;8536;52.150;11.572;2022-11-20T09:31:48;7.00;;;5.00;;
16839;SDS011;8536;52.150;11.572;2022-11-20T09:34:14;6.63;;;5.03;;
16839;SDS011;8536;52.150;11.572;2022-11-20T09:36:41;7.27;;;4.67;;
16839;SDS011;8536;52.150;11.572;2022-11-20T09:39:07;6.60;;;5.37;;
16839;SDS011;8536;52.150;11.572;2022-11-20T09:55:28;5.63;;;4.20;;
16839;SDS011;8536;52.150;11.572;2022-11-20T09:57:55;5.37;;;3.73;;
16839;SDS011;8536;52.150;11.572;2022-11-20T10:00:22;6.83;;;4.60;;
16839;SDS011;8536;52.150;11.572;2022-11-20T10:02:59;32.03;;;21.77;;
16839;SDS011;8536;52.150;11.572;2022-11-20T10:10:46;7.10;;;5.70;;
16839;SDS011;8536;52.150;11.572;2022-11-20T10:24:24;7.33;;;5.07;;
16839;SDS011;8536;52.150;11.572;2022-11-20T10:29:41;7.40;;;5.33;;
16839;SDS011;8536;52.150;11.572;2022-11-20T10:32:11;7.33;;;4.60;;
16839;SDS011;8536;52.150;11.572;2022-11-20T10:37:26;5.40;;;4.33;;
16839;SDS011;8536;52.150;11.572;2022-11-20T10:39:58;5.63;;;4.17;;
16839;SDS011;8536;52.150;11.572;2022-11-20T10:42:37;6.20;;;4.20;;
16839;SDS011;8536;52.150;11.572;2022-11-20T10:45:31;4.57;;;4.03;;
16839;SDS011;8536;52.150;11.572;2022-11-20T10:48:14;5.90;;;4.00;;
16839;SDS011;8536;52.150;11.572;2022-11-20T11:02:21;6.80;;;4.40;;
16839;SDS011;8536;52.150;11.572;2022-11-20T11:04:56;8.43;;;6.10;;
16839;SDS011;8536;52.150;11.572;2022-11-20T11:07:27;6.40;;;4.60;;
16839;SDS011;8536;52.150;11.572;2022-11-20T11:09:56;5.53;;;3.80;;
16839;SDS011;8536;52.150;11.572;2022-11-20T11:12:24;6.07;;;3.60;;
16839;SDS011;8536;52.150;11.572;2022-11-20T11:14:53;5.17;;;3.87;;
16839;SDS011;8536;52.150;11.572;2022-11-20T11:17:23;3.87;;;3.20;;
16839;SDS011;8536;52.150;11.572;2022-11-20T11:20:02;4.03;;;2.73;;
16839;SDS011;8536;52.150;11.572;2022-11-20T11:22:46;4.07;;;2.97;;
16839;SDS011;8536;52.150;11.572;2022-11-20T11:25:32;7.87;;;4.37;;
16839;SDS011;8536;52.150;11.572;2022-11-20T11:28:03;7.20;;;3.70;;
16839;SDS011;8536;52.150;11.572;2022-11-20T11:30:41;5.93;;;4.00;;
16839;SDS011;8536;52.150;11.572;2022-11-20T11:33:09;7.00;;;4.20;;
16839;SDS011;8536;52.150;11.572;2022-11-20T11:35:44;6.33;;;3.47;;
16839;SDS011;8536;52.150;11.572;2022-11-20T11:38:17;5.03;;;3.20;;
16839;SDS011;8536;52.150;11.572;2022-11-20T11:40:47;4.07;;;3.00;;
16839;SDS011;8536;52.150;11.572;2022-11-20T11:43:21;3.23;;;2.93;;
16839;SDS011;8536;52.150;11.572;2022-11-20T11:48:59;6.57;;;3.50;;
16839;SDS011;8536;52.150;11.572;2022-11-20T12:08:12;4.17;;;2.70;;
16839;SDS011;8536;52.150;11.572;2022-11-20T12:10:50;3.20;;;2.57;;
16839;SDS011;8536;52.150;11.572;2022-11-20T12:13:26;3.43;;;2.60;;
16839;SDS011;8536;52.150;11.572;2022-11-20T12:16:08;4.47;;;3.10;;
16839;SDS011;8536;52.150;11.572;2022-11-20T12:18:38;3.57;;;2.67;;
16839;SDS011;8536;52.150;11.572;2022-11-20T12:35:23;4.63;;;3.57;;
16839;SDS011;8536;52.150;11.572;2022-11-20T12:49:53;4.83;;;3.53;;
16839;SDS011;8536;52.150;11.572;2022-11-20T13:00:56;4.50;;;2.60;;
16839;SDS011;8536;52.150;11.572;2022-11-20T13:04:07;4.00;;;2.90;;
16839;SDS011;8536;52.150;11.572;2022-11-20T13:06:39;3.47;;;2.97;;
16839;SDS011;8536;52.150;11.572;2022-11-20T13:09:11;4.57;;;2.70;;
16839;SDS011;8536;52.150;11.572;2022-11-20T13:17:05;3.07;;;2.70;;
16839;SDS011;8536;52.150;11.572;2022-11-20T13:19:37;5.87;;;3.10;;
16839;SDS011;8536;52.150;11.572;2022-11-20T13:22:04;4.70;;;3.10;;
16839;SDS011;8536;52.150;11.572;2022-11-20T13:24:31;3.80;;;3.23;;
16839;SDS011;8536;52.150;11.572;2022-11-20T13:27:16;3.87;;;3.10;;
16839;SDS011;8536;52.150;11.572;2022-11-20T13:29:46;5.17;;;2.90;;
16839;SDS011;8536;52.150;11.572;2022-11-20T13:32:14;4.33;;;3.17;;
16839;SDS011;8536;52.150;11.572;2022-11-20T13:37:35;4.07;;;3.23;;
16839;SDS011;8536;52.150;11.572;2022-11-20T13:42:37;6.50;;;3.70;;
16839;SDS011;8536;52.150;11.572;2022-11-20T13:45:10;6.03;;;3.80;;
16839;SDS011;8536;52.150;11.572;2022-11-20T13:47:48;5.67;;;3.87;;
16839;SDS011;8536;52.150;11.572;2022-11-20T13:50:16;5.47;;;3.77;;
16839;SDS011;8536;52.150;11.572;2022-11-20T13:52:51;4.40;;;3.53;;
16839;SDS011;8536;52.150;11.572;2022-11-20T13:55:38;5.37;;;3.50;;
16839;SDS011;8536;52.150;11.572;2022-11-20T14:01:17;5.63;;;3.30;;
16839;SDS011;8536;52.150;11.572;2022-11-20T14:03:46;5.60;;;3.50;;
16839;SDS011;8536;52.150;11.572;2022-11-20T14:06:32;5.93;;;4.17;;
16839;SDS011;8536;52.150;11.572;2022-11-20T14:09:05;6.43;;;3.70;;
16839;SDS011;8536;52.150;11.572;2022-11-20T14:11:45;5.80;;;3.40;;
16839;SDS011;8536;52.150;11.572;2022-11-20T14:14:16;3.63;;;2.73;;
16839;SDS011;8536;52.150;11.572;2022-11-20T14:16:43;2.80;;;2.13;;
16839;SDS011;8536;52.150;11.572;2022-11-20T14:21:49;3.87;;;2.70;;
16839;SDS011;8536;52.150;11.572;2022-11-20T14:24:22;5.80;;;2.60;;
16839;SDS011;8536;52.150;11.572;2022-11-20T14:26:50;4.70;;;3.03;;
16839;SDS011;8536;52.150;11.572;2022-11-20T14:29:18;3.97;;;3.27;;
16839;SDS011;8536;52.150;11.572;2022-11-20T14:31:46;4.93;;;3.60;;
16839;SDS011;8536;52.150;11.572;2022-11-20T14:34:24;5.00;;;3.93;;
16839;SDS011;8536;52.150;11.572;2022-11-20T14:37:02;6.50;;;3.73;;
16839;SDS011;8536;52.150;11.572;2022-11-20T14:39:31;5.13;;;3.90;;
16839;SDS011;8536;52.150;11.572;2022-11-20T14:41:59;6.40;;;3.93;;
16839;SDS011;8536;52.150;11.572;2022-11-20T14:44:44;4.97;;;3.70;;
16839;SDS011;8536;52.150;11.572;2022-11-20T14:47:11;4.40;;;3.07;;
16839;SDS011;8536;52.150;11.572;2022-11-20T14:49:39;6.17;;;3.60;;
16839;SDS011;8536;52.150;11.572;2022-11-20T14:52:11;4.00;;;3.60;;
16839;SDS011;8536;52.150;11.572;2022-11-20T14:54:44;4.93;;;4.20;;
16839;SDS011;8536;52.150;11.572;2022-11-20T14:59:50;15.07;;;8.40;;
16839;SDS011;8536;52.150;11.572;2022-11-20T15:02:16;6.93;;;4.27;;
16839;SDS011;8536;52.150;11.572;2022-11-20T15:04:50;6.20;;;4.30;;
16839;SDS011;8536;52.150;11.572;2022-11-20T15:07:26;7.70;;;3.73;;
16839;SDS011;8536;52.150;11.572;2022-11-20T15:12:29;5.83;;;3.60;;
16839;SDS011;8536;52.150;11.572;2022-11-20T15:14:56;4.90;;;3.27;;
16839;SDS011;8536;52.150;11.572;2022-11-20T15:17:23;6.23;;;3.57;;
16839;SDS011;8536;52.150;11.572;2022-11-20T15:19:50;6.83;;;3.93;;
16839;SDS011;8536;52.150;11.572;2022-11-20T15:22:17;8.63;;;5.23;;
16839;SDS011;8536;52.150;11.572;2022-11-20T15:24:44;13.77;;;7.20;;
16839;SDS011;8536;52.150;11.572;2022-11-20T15:27:11;12.40;;;6.53;;
16839;SDS011;8536;52.150;11.572;2022-11-20T15:29:38;6.53;;;4.60;;
16839;SDS011;8536;52.150;11.572;2022-11-20T15:32:04;7.40;;;4.07;;
16839;SDS011;8536;52.150;11.572;2022-11-20T15:34:38;4.83;;;3.47;;
16839;SDS011;8536;52.150;11.572;2022-11-20T15:37:04;6.10;;;3.83;;
16839;SDS011;8536;52.150;11.572;2022-11-20T15:39:31;5.77;;;4.07;;
16839;SDS011;8536;52.150;11.572;2022-11-20T15:41:57;6.70;;;4.10;;
16839;SDS011;8536;52.150;11.572;2022-11-20T15:44:24;5.90;;;4.27;;
16839;SDS011;8536;52.150;11.572;2022-11-20T15:46:50;4.53;;;4.13;;
16839;SDS011;8536;52.150;11.572;2022-11-20T15:49:17;6.80;;;4.57;;
16839;SDS011;8536;52.150;11.572;2022-11-20T15:51:46;7.40;;;4.83;;
16839;SDS011;8536;52.150;11.572;2022-11-20T15:54:23;5.47;;;4.63;;
16839;SDS011;8536;52.150;11.572;2022-11-20T15:56:50;6.20;;;4.13;;
16839;SDS011;8536;52.150;11.572;2022-11-20T15:59:19;6.60;;;4.80;;
16839;SDS011;8536;52.150;11.572;2022-11-20T16:01:46;6.60;;;4.13;;
16839;SDS011;8536;52.150;11.572;2022-11-20T16:04:13;7.23;;;5.10;;
16839;SDS011;8536;52.150;11.572;2022-11-20T16:06:40;8.27;;;4.67;;
16839;SDS011;8536;52.150;11.572;2022-11-20T16:09:07;14.97;;;8.77;;
16839;SDS011;8536;52.150;11.572;2022-11-20T16:11:33;15.27;;;9.80;;
16839;SDS011;8536;52.150;11.572;2022-11-20T16:14:03;22.23;;;11.47;;
16839;SDS011;8536;52.150;11.572;2022-11-20T16:16:48;16.50;;;10.20;;
16839;SDS011;8536;52.150;11.572;2022-11-20T16:19:15;14.20;;;9.80;;
16839;SDS011;8536;52.150;11.572;2022-11-20T16:21:41;15.40;;;9.00;;
16839;SDS011;8536;52.150;11.572;2022-11-20T16:24:12;13.87;;;8.57;;
16839;SDS011;8536;52.150;11.572;2022-11-20T16:26:40;12.10;;;7.93;;
16839;SDS011;8536;52.150;11.572;2022-11-20T16:29:06;11.40;;;8.07;;
16839;SDS011;8536;52.150;11.572;2022-11-20T16:31:33;11.00;;;7.23;;
16839;SDS011;8536;52.150;11.572;2022-11-20T16:34:00;11.30;;;7.83;;
16839;SDS011;8536;52.150;11.572;2022-11-20T16:36:38;11.30;;;7.47;;
16839;SDS011;8536;52.150;11.572;2022-11-20T16:39:05;10.57;;;6.80;;
16839;SDS011;8536;52.150;11.572;2022-11-20T16:41:33;10.83;;;7.37;;
16839;SDS011;8536;52.150;11.572;2022-11-20T16:44:01;11.27;;;7.33;;
16839;SDS011;8536;52.150;11.572;2022-11-20T16:46:29;8.90;;;6.73;;
16839;SDS011;8536;52.150;11.572;2022-11-20T16:48:57;8.17;;;6.23;;
16839;SDS011;8536;52.150;11.572;2022-11-20T16:51:28;12.30;;;7.30;;
16839;SDS011;8536;52.150;11.572;2022-11-20T16:53:55;12.20;;;7.43;;
16839;SDS011;8536;52.150;11.572;2022-11-20T16:56:23;10.87;;;7.03;;
16839;SDS011;8536;52.150;11.572;2022-11-20T16:58:52;9.50;;;6.30;;